sensor_id;sensor_type;location;lat;lon;timestamp;P1;durP1;ratioP1;P2;durP2;ratioP2
1300;SDS011;59099;48.806;9.160;2022-09-12T00:00:30;11.90;;;10.17;;
1300;SDS011;59099;48.806;9.160;2022-09-12T00:02:56;11.37;;;10.27;;
1300;SDS011;59099;48.806;9.160;2022-09-12T00:05:23;9.77;;;8.87;;
1300;SDS011;59099;48.806;9.160;2022-09-12T00:07:49;11.67;;;9.00;;
1300;SDS011;59099;48.806;9.160;2022-09-12T00:10:15;10.40;;;9.50;;
1300;SDS011;59099;48.806;9.160;2022-09-12T00:12:42;10.50;;;9.60;;
1300;SDS011;59099;48.806;9.160;2022-09-12T00:15:08;11.03;;;9.70;;
1300;SDS011;59099;48.806;9.160;2022-09-12T00:17:35;10.37;;;9.17;;
1300;SDS011;59099;48.806;9.160;2022-09-12T00:20:03;10.37;;;9.47;;
1300;SDS011;59099;48.806;9.160;2022-09-12T00:22:31;10.33;;;9.30;;
1300;SDS011;59099;48.806;9.160;2022-09-12T00:24:57;10.40;;;9.40;;
1300;SDS011;59099;48.806;9.160;2022-09-12T00:27:23;11.57;;;10.17;;
1300;SDS011;59099;48.806;9.160;2022-09-12T00:29:49;10.27;;;9.37;;
1300;SDS011;59099;48.806;9.160;2022-09-12T00:32:15;9.93;;;9.00;;
1300;SDS011;59099;48.806;9.160;2022-09-12T00:34:41;11.07;;;9.97;;
1300;SDS011;59099;48.806;9.160;2022-09-12T00:37:07;11.87;;;10.77;;
1300;SDS011;59099;48.806;9.160;2022-09-12T00:39:32;9.70;;;8.80;;
1300;SDS011;59099;48.806;9.160;2022-09-12T00:41:58;11.60;;;10.60;;
1300;SDS011;59099;48.806;9.160;2022-09-12T00:46:56;10.43;;;9.40;;
1300;SDS011;59099;48.806;9.160;2022-09-12T00:49:32;8.73;;;8.00;;
1300;SDS011;59099;48.806;9.160;2022-09-12T00:52:05;9.37;;;8.27;;
1300;SDS011;59099;48.806;9.160;2022-09-12T00:54:55;10.67;;;9.67;;
1300;SDS011;59099;48.806;9.160;2022-09-12T00:57:25;10.33;;;9.43;;
1300;SDS011;59099;48.806;9.160;2022-09-12T01:00:18;9.40;;;8.60;;
1300;SDS011;59099;48.806;9.160;2022-09-12T01:02:44;13.63;;;9.77;;
1300;SDS011;59099;48.806;9.160;2022-09-12T01:05:14;11.60;;;10.50;;
1300;SDS011;59099;48.806;9.160;2022-09-12T01:07:40;11.10;;;9.50;;
1300;SDS011;59099;48.806;9.160;2022-09-12T01:10:07;12.07;;;10.97;;
1300;SDS011;59099;48.806;9.160;2022-09-12T01:12:34;11.17;;;10.03;;
1300;SDS011;59099;48.806;9.160;2022-09-12T01:15:03;11.07;;;9.97;;
1300;SDS011;59099;48.806;9.160;2022-09-12T01:20:34;10.40;;;9.40;;
1300;SDS011;59099;48.806;9.160;2022-09-12T01:26:11;11.93;;;10.60;;
1300;SDS011;59099;48.806;9.160;2022-09-12T01:36:45;11.30;;;10.03;;
1300;SDS011;59099;48.806;9.160;2022-09-12T01:42:25;9.90;;;9.00;;
1300;SDS011;59099;48.806;9.160;2022-09-12T01:47:40;11.37;;;10.20;;
1300;SDS011;59099;48.806;9.160;2022-09-12T01:50:18;11.70;;;10.60;;
1300;SDS011;59099;48.806;9.160;2022-09-12T01:52:53;11.37;;;10.33;;
1300;SDS011;59099;48.806;9.160;2022-09-12T01:55:25;10.97;;;9.73;;
1300;SDS011;59099;48.806;9.160;2022-09-12T01:57:59;11.17;;;9.27;;
1300;SDS011;59099;48.806;9.160;2022-09-12T02:00:41;11.07;;;10.07;;
1300;SDS011;59099;48.806;9.160;2022-09-12T02:03:16;10.37;;;9.33;;
1300;SDS011;59099;48.806;9.160;2022-09-12T02:05:49;10.53;;;9.47;;
1300;SDS011;59099;48.806;9.160;2022-09-12T02:08:21;11.87;;;10.27;;
1300;SDS011;59099;48.806;9.160;2022-09-12T02:11:14;13.30;;;10.97;;
1300;SDS011;59099;48.806;9.160;2022-09-12T02:13:46;11.33;;;10.10;;
1300;SDS011;59099;48.806;9.160;2022-09-12T02:16:21;11.87;;;10.70;;
1300;SDS011;59099;48.806;9.160;2022-09-12T02:18:54;11.23;;;10.10;;
1300;SDS011;59099;48.806;9.160;2022-09-12T02:21:23;11.17;;;9.47;;
1300;SDS011;59099;48.806;9.160;2022-09-12T02:23:56;11.83;;;10.73;;
1300;SDS011;59099;48.806;9.160;2022-09-12T02:26:28;12.63;;;11.30;;
1300;SDS011;59099;48.806;9.160;2022-09-12T02:28:59;13.73;;;11.33;;
1300;SDS011;59099;48.806;9.160;2022-09-12T02:31:26;11.73;;;10.53;;
1300;SDS011;59099;48.806;9.160;2022-09-12T02:34:36;11.90;;;10.70;;
1300;SDS011;59099;48.806;9.160;2022-09-12T02:37:04;11.90;;;10.70;;
1300;SDS011;59099;48.806;9.160;2022-09-12T02:39:41;12.80;;;11.40;;
1300;SDS011;59099;48.806;9.160;2022-09-12T02:42:07;13.20;;;11.83;;
1300;SDS011;59099;48.806;9.160;2022-09-12T02:44:33;10.80;;;9.80;;
1300;SDS011;59099;48.806;9.160;2022-09-12T02:47:04;12.30;;;11.10;;
1300;SDS011;59099;48.806;9.160;2022-09-12T02:49:36;12.27;;;10.13;;
1300;SDS011;59099;48.806;9.160;2022-09-12T02:52:02;13.37;;;12.03;;
1300;SDS011;59099;48.806;9.160;2022-09-12T02:54:28;12.73;;;11.43;;
1300;SDS011;59099;48.806;9.160;2022-09-12T02:56:55;13.07;;;11.20;;
1300;SDS011;59099;48.806;9.160;2022-09-12T02:59:20;18.53;;;11.40;;
1300;SDS011;59099;48.806;9.160;2022-09-12T03:04:46;12.87;;;10.83;;
1300;SDS011;59099;48.806;9.160;2022-09-12T03:13:32;15.77;;;11.33;;
1300;SDS011;59099;48.806;9.160;2022-09-12T03:19:12;11.93;;;10.40;;
1300;SDS011;59099;48.806;9.160;2022-09-12T03:24:24;12.43;;;11.13;;
1300;SDS011;59099;48.806;9.160;2022-09-12T03:26:58;11.30;;;10.30;;
1300;SDS011;59099;48.806;9.160;2022-09-12T03:29:34;12.07;;;10.70;;
1300;SDS011;59099;48.806;9.160;2022-09-12T03:32:02;11.43;;;10.10;;
1300;SDS011;59099;48.806;9.160;2022-09-12T03:34:28;12.03;;;10.90;;
1300;SDS011;59099;48.806;9.160;2022-09-12T03:36:53;11.67;;;10.47;;
1300;SDS011;59099;48.806;9.160;2022-09-12T03:39:20;14.13;;;10.37;;
1300;SDS011;59099;48.806;9.160;2022-09-12T03:41:48;12.90;;;10.77;;
1300;SDS011;59099;48.806;9.160;2022-09-12T03:44:15;15.97;;;11.50;;
1300;SDS011;59099;48.806;9.160;2022-09-12T03:46:41;15.43;;;11.80;;
1300;SDS011;59099;48.806;9.160;2022-09-12T03:49:07;12.47;;;10.70;;
1300;SDS011;59099;48.806;9.160;2022-09-12T03:51:33;10.87;;;9.97;;
1300;SDS011;59099;48.806;9.160;2022-09-12T03:53:59;14.40;;;11.87;;
1300;SDS011;59099;48.806;9.160;2022-09-12T03:56:24;11.70;;;10.30;;
1300;SDS011;59099;48.806;9.160;2022-09-12T03:58:50;13.07;;;11.30;;
1300;SDS011;59099;48.806;9.160;2022-09-12T04:01:17;11.93;;;10.80;;
1300;SDS011;59099;48.806;9.160;2022-09-12T04:03:44;11.80;;;10.70;;
1300;SDS011;59099;48.806;9.160;2022-09-12T04:06:13;12.80;;;10.43;;
1300;SDS011;59099;48.806;9.160;2022-09-12T04:08:48;11.70;;;10.53;;
1300;SDS011;59099;48.806;9.160;2022-09-12T04:11:16;11.10;;;9.63;;
1300;SDS011;59099;48.806;9.160;2022-09-12T04:13:43;11.87;;;10.67;;
1300;SDS011;59099;48.806;9.160;2022-09-12T04:16:10;11.07;;;10.00;;
1300;SDS011;59099;48.806;9.160;2022-09-12T04:18:37;12.87;;;10.47;;
1300;SDS011;59099;48.806;9.160;2022-09-12T04:21:04;12.00;;;10.70;;
1300;SDS011;59099;48.806;9.160;2022-09-12T04:23:31;10.33;;;9.33;;
1300;SDS011;59099;48.806;9.160;2022-09-12T04:25:58;12.63;;;11.40;;
1300;SDS011;59099;48.806;9.160;2022-09-12T04:28:25;12.70;;;11.40;;
1300;SDS011;59099;48.806;9.160;2022-09-12T04:30:53;12.47;;;11.13;;
1300;SDS011;59099;48.806;9.160;2022-09-12T04:33:19;11.90;;;10.70;;
1300;SDS011;59099;48.806;9.160;2022-09-12T04:35:46;12.83;;;11.00;;
1300;SDS011;59099;48.806;9.160;2022-09-12T04:38:12;12.13;;;10.93;;
1300;SDS011;59099;48.806;9.160;2022-09-12T04:40:38;11.40;;;10.27;;
1300;SDS011;59099;48.806;9.160;2022-09-12T04:43:04;15.03;;;11.00;;
1300;SDS011;59099;48.806;9.160;2022-09-12T04:45:31;10.80;;;9.70;;
1300;SDS011;59099;48.806;9.160;2022-09-12T04:47:58;11.27;;;10.17;;
1300;SDS011;59099;48.806;9.160;2022-09-12T04:50:24;12.87;;;11.27;;
1300;SDS011;59099;48.806;9.160;2022-09-12T04:52:50;12.57;;;11.03;;
1300;SDS011;59099;48.806;9.160;2022-09-12T04:55:17;11.63;;;10.40;;
1300;SDS011;59099;48.806;9.160;2022-09-12T04:57:43;11.37;;;10.20;;
1300;SDS011;59099;48.806;9.160;2022-09-12T05:00:10;14.50;;;11.10;;
1300;SDS011;59099;48.806;9.160;2022-09-12T05:02:39;12.33;;;10.03;;
1300;SDS011;59099;48.806;9.160;2022-09-12T05:05:06;13.53;;;11.53;;
1300;SDS011;59099;48.806;9.160;2022-09-12T05:07:32;11.10;;;10.00;;
1300;SDS011;59099;48.806;9.160;2022-09-12T05:09:58;11.50;;;9.90;;
1300;SDS011;59099;48.806;9.160;2022-09-12T05:12:25;11.77;;;10.30;;
1300;SDS011;59099;48.806;9.160;2022-09-12T05:14:51;15.60;;;10.90;;
1300;SDS011;59099;48.806;9.160;2022-09-12T05:17:17;12.37;;;11.10;;
1300;SDS011;59099;48.806;9.160;2022-09-12T05:19:43;12.30;;;10.37;;
1300;SDS011;59099;48.806;9.160;2022-09-12T05:22:08;10.43;;;9.33;;
1300;SDS011;59099;48.806;9.160;2022-09-12T05:24:37;12.73;;;11.27;;
1300;SDS011;59099;48.806;9.160;2022-09-12T05:27:07;12.37;;;10.50;;
1300;SDS011;59099;48.806;9.160;2022-09-12T05:29:33;12.30;;;11.17;;
1300;SDS011;59099;48.806;9.160;2022-09-12T05:31:58;13.30;;;10.43;;
1300;SDS011;59099;48.806;9.160;2022-09-12T05:34:27;11.37;;;10.20;;
1300;SDS011;59099;48.806;9.160;2022-09-12T05:36:52;12.67;;;11.20;;
1300;SDS011;59099;48.806;9.160;2022-09-12T05:39:18;12.80;;;10.27;;
1300;SDS011;59099;48.806;9.160;2022-09-12T05:41:47;15.27;;;12.03;;
1300;SDS011;59099;48.806;9.160;2022-09-12T05:44:13;13.53;;;10.30;;
1300;SDS011;59099;48.806;9.160;2022-09-12T05:46:40;10.87;;;9.83;;
1300;SDS011;59099;48.806;9.160;2022-09-12T05:49:08;12.33;;;10.57;;
1300;SDS011;59099;48.806;9.160;2022-09-12T05:51:37;12.03;;;10.83;;
1300;SDS011;59099;48.806;9.160;2022-09-12T05:54:06;11.10;;;9.80;;
1300;SDS011;59099;48.806;9.160;2022-09-12T05:56:37;12.03;;;10.83;;
1300;SDS011;59099;48.806;9.160;2022-09-12T05:59:05;12.20;;;10.90;;
1300;SDS011;59099;48.806;9.160;2022-09-12T06:01:42;12.80;;;11.50;;
1300;SDS011;59099;48.806;9.160;2022-09-12T06:04:08;11.27;;;10.17;;
1300;SDS011;59099;48.806;9.160;2022-09-12T06:06:36;15.10;;;11.00;;
1300;SDS011;59099;48.806;9.160;2022-09-12T06:09:05;12.47;;;11.23;;
1300;SDS011;59099;48.806;9.160;2022-09-12T06:11:32;12.33;;;11.20;;
1300;SDS011;59099;48.806;9.160;2022-09-12T06:13:59;14.23;;;12.40;;
1300;SDS011;59099;48.806;9.160;2022-09-12T06:16:27;13.47;;;12.17;;
1300;SDS011;59099;48.806;9.160;2022-09-12T06:18:55;15.27;;;12.77;;
1300;SDS011;59099;48.806;9.160;2022-09-12T06:21:22;17.30;;;13.13;;
1300;SDS011;59099;48.806;9.160;2022-09-12T06:23:49;14.33;;;12.57;;
1300;SDS011;59099;48.806;9.160;2022-09-12T06:26:16;13.83;;;12.10;;
1300;SDS011;59099;48.806;9.160;2022-09-12T06:28:46;14.40;;;12.47;;
1300;SDS011;59099;48.806;9.160;2022-09-12T06:31:16;17.13;;;13.97;;
1300;SDS011;59099;48.806;9.160;2022-09-12T06:33:45;18.57;;;14.60;;
1300;SDS011;59099;48.806;9.160;2022-09-12T06:36:17;17.03;;;15.33;;
1300;SDS011;59099;48.806;9.160;2022-09-12T06:38:45;18.13;;;16.10;;
1300;SDS011;59099;48.806;9.160;2022-09-12T06:41:12;17.40;;;14.67;;
1300;SDS011;59099;48.806;9.160;2022-09-12T06:43:39;16.27;;;14.07;;
1300;SDS011;59099;48.806;9.160;2022-09-12T06:46:05;18.63;;;16.70;;
1300;SDS011;59099;48.806;9.160;2022-09-12T06:48:32;18.87;;;16.10;;
1300;SDS011;59099;48.806;9.160;2022-09-12T06:51:00;20.33;;;17.70;;
1300;SDS011;59099;48.806;9.160;2022-09-12T06:53:27;18.37;;;15.20;;
1300;SDS011;59099;48.806;9.160;2022-09-12T06:55:58;19.63;;;16.67;;
1300;SDS011;59099;48.806;9.160;2022-09-12T06:58:26;19.97;;;16.37;;
1300;SDS011;59099;48.806;9.160;2022-09-12T07:00:52;21.90;;;18.60;;
1300;SDS011;59099;48.806;9.160;2022-09-12T07:03:29;24.23;;;18.90;;
1300;SDS011;59099;48.806;9.160;2022-09-12T07:05:56;19.40;;;17.13;;
1300;SDS011;59099;48.806;9.160;2022-09-12T07:08:22;19.90;;;17.57;;
1300;SDS011;59099;48.806;9.160;2022-09-12T07:10:48;22.30;;;18.90;;
1300;SDS011;59099;48.806;9.160;2022-09-12T07:13:14;22.20;;;18.20;;
1300;SDS011;59099;48.806;9.160;2022-09-12T07:15:40;20.97;;;17.40;;
1300;SDS011;59099;48.806;9.160;2022-09-12T07:18:05;17.90;;;15.63;;
1300;SDS011;59099;48.806;9.160;2022-09-12T07:20:32;19.57;;;16.67;;
1300;SDS011;59099;48.806;9.160;2022-09-12T07:22:58;20.77;;;16.40;;
1300;SDS011;59099;48.806;9.160;2022-09-12T07:25:24;18.07;;;15.30;;
1300;SDS011;59099;48.806;9.160;2022-09-12T07:27:51;15.33;;;13.83;;
1300;SDS011;59099;48.806;9.160;2022-09-12T07:30:17;15.43;;;13.93;;
1300;SDS011;59099;48.806;9.160;2022-09-12T07:32:50;14.87;;;13.47;;
1300;SDS011;59099;48.806;9.160;2022-09-12T07:35:19;13.30;;;12.00;;
1300;SDS011;59099;48.806;9.160;2022-09-12T07:37:45;12.90;;;10.57;;
1300;SDS011;59099;48.806;9.160;2022-09-12T07:40:11;12.20;;;10.80;;
1300;SDS011;59099;48.806;9.160;2022-09-12T07:42:37;11.47;;;10.37;;
1300;SDS011;59099;48.806;9.160;2022-09-12T07:45:03;11.67;;;10.57;;
1300;SDS011;59099;48.806;9.160;2022-09-12T07:47:29;14.80;;;11.63;;
1300;SDS011;59099;48.806;9.160;2022-09-12T07:49:55;12.97;;;11.67;;
1300;SDS011;59099;48.806;9.160;2022-09-12T07:52:21;13.13;;;11.87;;
1300;SDS011;59099;48.806;9.160;2022-09-12T07:54:47;12.47;;;11.13;;
1300;SDS011;59099;48.806;9.160;2022-09-12T07:57:12;11.73;;;10.53;;
1300;SDS011;59099;48.806;9.160;2022-09-12T07:59:39;13.50;;;12.10;;
1300;SDS011;59099;48.806;9.160;2022-09-12T08:02:12;13.50;;;12.20;;
1300;SDS011;59099;48.806;9.160;2022-09-12T08:04:38;12.67;;;11.37;;
1300;SDS011;59099;48.806;9.160;2022-09-12T08:07:06;14.07;;;11.33;;
1300;SDS011;59099;48.806;9.160;2022-09-12T08:09:33;14.60;;;10.43;;
1300;SDS011;59099;48.806;9.160;2022-09-12T08:11:59;12.10;;;10.90;;
1300;SDS011;59099;48.806;9.160;2022-09-12T08:14:25;14.73;;;12.93;;
1300;SDS011;59099;48.806;9.160;2022-09-12T08:16:51;13.03;;;11.73;;
1300;SDS011;59099;48.806;9.160;2022-09-12T08:19:23;15.97;;;11.27;;
1300;SDS011;59099;48.806;9.160;2022-09-12T08:21:48;12.40;;;11.17;;
1300;SDS011;59099;48.806;9.160;2022-09-12T08:24:14;13.10;;;11.00;;
1300;SDS011;59099;48.806;9.160;2022-09-12T08:26:42;12.20;;;10.87;;
1300;SDS011;59099;48.806;9.160;2022-09-12T08:29:11;11.63;;;10.37;;
1300;SDS011;59099;48.806;9.160;2022-09-12T08:31:36;11.13;;;9.20;;
1300;SDS011;59099;48.806;9.160;2022-09-12T08:34:03;8.63;;;7.83;;
1300;SDS011;59099;48.806;9.160;2022-09-12T08:36:29;10.53;;;9.63;;
1300;SDS011;59099;48.806;9.160;2022-09-12T08:38:56;9.90;;;9.10;;
1300;SDS011;59099;48.806;9.160;2022-09-12T08:41:40;11.20;;;10.17;;
1300;SDS011;59099;48.806;9.160;2022-09-12T08:57:46;13.07;;;8.10;;
1300;SDS011;59099;48.806;9.160;2022-09-12T09:00:12;6.80;;;6.30;;
1300;SDS011;59099;48.806;9.160;2022-09-12T09:02:57;7.90;;;7.20;;
1300;SDS011;59099;48.806;9.160;2022-09-12T09:05:48;7.03;;;6.37;;
1300;SDS011;59099;48.806;9.160;2022-09-12T09:17:00;7.77;;;4.80;;
1300;SDS011;59099;48.806;9.160;2022-09-12T09:19:24;6.40;;;5.90;;
1300;SDS011;59099;48.806;9.160;2022-09-12T09:22:10;7.10;;;5.80;;
1300;SDS011;59099;48.806;9.160;2022-09-12T09:24:50;5.53;;;5.03;;
1300;SDS011;59099;48.806;9.160;2022-09-12T09:29:55;4.47;;;4.17;;
1300;SDS011;59099;48.806;9.160;2022-09-12T09:32:26;5.37;;;4.87;;
1300;SDS011;59099;48.806;9.160;2022-09-12T09:35:15;5.03;;;4.57;;
1300;SDS011;59099;48.806;9.160;2022-09-12T09:38:01;5.50;;;5.00;;
1300;SDS011;59099;48.806;9.160;2022-09-12T09:43:24;4.40;;;4.00;;
1300;SDS011;59099;48.806;9.160;2022-09-12T09:45:53;4.70;;;3.43;;
1300;SDS011;59099;48.806;9.160;2022-09-12T09:48:24;3.60;;;3.30;;
1300;SDS011;59099;48.806;9.160;2022-09-12T09:50:52;3.20;;;3.00;;
1300;SDS011;59099;48.806;9.160;2022-09-12T09:53:36;2.87;;;2.63;;
1300;SDS011;59099;48.806;9.160;2022-09-12T09:56:08;3.70;;;3.50;;
1300;SDS011;59099;48.806;9.160;2022-09-12T09:58:50;3.57;;;3.30;;
1300;SDS011;59099;48.806;9.160;2022-09-12T10:01:17;4.67;;;2.80;;
1300;SDS011;59099;48.806;9.160;2022-09-12T10:03:50;2.73;;;2.53;;
1300;SDS011;59099;48.806;9.160;2022-09-12T10:08:43;2.97;;;2.60;;
1300;SDS011;59099;48.806;9.160;2022-09-12T10:11:19;2.33;;;2.10;;
1300;SDS011;59099;48.806;9.160;2022-09-12T10:16:25;2.37;;;2.23;;
1300;SDS011;59099;48.806;9.160;2022-09-12T10:18:53;2.10;;;2.00;;
1300;SDS011;59099;48.806;9.160;2022-09-12T10:21:22;2.17;;;2.07;;
1300;SDS011;59099;48.806;9.160;2022-09-12T10:26:37;4.57;;;2.83;;
1300;SDS011;59099;48.806;9.160;2022-09-12T10:29:14;1.90;;;1.80;;
1300;SDS011;59099;48.806;9.160;2022-09-12T10:31:46;2.60;;;2.37;;
1300;SDS011;59099;48.806;9.160;2022-09-12T10:34:20;2.83;;;2.63;;
1300;SDS011;59099;48.806;9.160;2022-09-12T10:36:51;1.93;;;1.70;;
1300;SDS011;59099;48.806;9.160;2022-09-12T10:39:28;2.00;;;1.90;;
1300;SDS011;59099;48.806;9.160;2022-09-12T10:41:55;2.10;;;2.00;;
1300;SDS011;59099;48.806;9.160;2022-09-12T10:44:28;1.70;;;1.60;;
1300;SDS011;59099;48.806;9.160;2022-09-12T10:46:56;2.23;;;2.13;;
1300;SDS011;59099;48.806;9.160;2022-09-12T10:49:25;2.30;;;2.20;;
1300;SDS011;59099;48.806;9.160;2022-09-12T10:51:54;2.10;;;1.90;;
1300;SDS011;59099;48.806;9.160;2022-09-12T10:54:25;2.40;;;2.30;;
1300;SDS011;59099;48.806;9.160;2022-09-12T10:56:59;3.03;;;2.23;;
1300;SDS011;59099;48.806;9.160;2022-09-12T11:00:02;2.10;;;2.00;;
1300;SDS011;59099;48.806;9.160;2022-09-12T11:05:13;2.17;;;1.80;;
1300;SDS011;59099;48.806;9.160;2022-09-12T11:10:21;2.10;;;1.90;;
1300;SDS011;59099;48.806;9.160;2022-09-12T11:13:11;1.90;;;1.80;;
1300;SDS011;59099;48.806;9.160;2022-09-12T11:27:07;1.90;;;1.63;;
1300;SDS011;59099;48.806;9.160;2022-09-12T11:29:57;2.00;;;1.80;;
1300;SDS011;59099;48.806;9.160;2022-09-12T11:35:05;1.80;;;1.70;;
1300;SDS011;59099;48.806;9.160;2022-09-12T11:46:39;1.70;;;1.60;;
1300;SDS011;59099;48.806;9.160;2022-09-12T11:54:35;1.43;;;1.33;;
1300;SDS011;59099;48.806;9.160;2022-09-12T12:00:20;1.50;;;1.40;;
1300;SDS011;59099;48.806;9.160;2022-09-12T12:06:02;1.40;;;1.30;;
1300;SDS011;59099;48.806;9.160;2022-09-12T12:08:36;1.03;;;0.93;;
1300;SDS011;59099;48.806;9.160;2022-09-12T12:11:07;3.10;;;1.00;;
1300;SDS011;59099;48.806;9.160;2022-09-12T12:13:39;0.77;;;0.77;;
1300;SDS011;59099;48.806;9.160;2022-09-12T12:16:37;0.90;;;0.90;;
1300;SDS011;59099;48.806;9.160;2022-09-12T12:21:51;1.00;;;1.00;;
1300;SDS011;59099;48.806;9.160;2022-09-12T12:24:21;0.97;;;0.97;;
1300;SDS011;59099;48.806;9.160;2022-09-12T12:29:44;1.90;;;1.17;;
1300;SDS011;59099;48.806;9.160;2022-09-12T12:34:40;0.80;;;0.80;;
1300;SDS011;59099;48.806;9.160;2022-09-12T12:52:48;1.30;;;1.20;;
1300;SDS011;59099;48.806;9.160;2022-09-12T12:55:31;0.90;;;0.90;;
1300;SDS011;59099;48.806;9.160;2022-09-12T12:58:52;0.90;;;0.90;;
1300;SDS011;59099;48.806;9.160;2022-09-12T13:03:34;0.93;;;0.90;;
1300;SDS011;59099;48.806;9.160;2022-09-12T13:06:01;1.20;;;1.10;;
1300;SDS011;59099;48.806;9.160;2022-09-12T13:08:30;1.13;;;1.10;;
1300;SDS011;59099;48.806;9.160;2022-09-12T13:13:50;1.17;;;0.83;;
1300;SDS011;59099;48.806;9.160;2022-09-12T13:18:56;0.90;;;0.90;;
1300;SDS011;59099;48.806;9.160;2022-09-12T13:21:28;1.43;;;1.10;;
1300;SDS011;59099;48.806;9.160;2022-09-12T13:24:04;1.87;;;1.17;;
1300;SDS011;59099;48.806;9.160;2022-09-12T13:26:40;1.20;;;1.10;;
1300;SDS011;59099;48.806;9.160;2022-09-12T13:29:21;0.83;;;0.83;;
1300;SDS011;59099;48.806;9.160;2022-09-12T13:31:52;0.90;;;0.90;;
1300;SDS011;59099;48.806;9.160;2022-09-12T13:34:34;1.17;;;1.10;;
1300;SDS011;59099;48.806;9.160;2022-09-12T13:37:23;0.87;;;0.87;;
1300;SDS011;59099;48.806;9.160;2022-09-12T13:42:46;1.20;;;1.20;;
1300;SDS011;59099;48.806;9.160;2022-09-12T13:45:22;1.00;;;1.00;;
1300;SDS011;59099;48.806;9.160;2022-09-12T13:48:00;1.83;;;1.53;;
1300;SDS011;59099;48.806;9.160;2022-09-12T13:50:41;2.27;;;1.10;;
1300;SDS011;59099;48.806;9.160;2022-09-12T13:53:16;1.30;;;1.20;;
1300;SDS011;59099;48.806;9.160;2022-09-12T13:55:44;0.90;;;0.90;;
1300;SDS011;59099;48.806;9.160;2022-09-12T14:00:59;0.80;;;0.80;;
1300;SDS011;59099;48.806;9.160;2022-09-12T14:03:26;1.10;;;1.10;;
1300;SDS011;59099;48.806;9.160;2022-09-12T14:06:10;1.43;;;0.80;;
1300;SDS011;59099;48.806;9.160;2022-09-12T14:08:43;0.90;;;0.90;;
1300;SDS011;59099;48.806;9.160;2022-09-12T14:11:14;0.90;;;0.90;;
1300;SDS011;59099;48.806;9.160;2022-09-12T14:13:48;1.10;;;1.07;;
1300;SDS011;59099;48.806;9.160;2022-09-12T14:16:16;0.90;;;0.83;;
1300;SDS011;59099;48.806;9.160;2022-09-12T14:18:48;0.93;;;0.93;;
1300;SDS011;59099;48.806;9.160;2022-09-12T14:26:54;1.13;;;0.80;;
1300;SDS011;59099;48.806;9.160;2022-09-12T14:29:21;1.00;;;1.00;;
1300;SDS011;59099;48.806;9.160;2022-09-12T14:31:59;0.97;;;0.97;;
1300;SDS011;59099;48.806;9.160;2022-09-12T14:34:26;0.90;;;0.77;;
1300;SDS011;59099;48.806;9.160;2022-09-12T14:36:53;1.20;;;1.10;;
1300;SDS011;59099;48.806;9.160;2022-09-12T14:39:22;0.90;;;0.90;;
1300;SDS011;59099;48.806;9.160;2022-09-12T14:42:05;0.93;;;0.93;;
1300;SDS011;59099;48.806;9.160;2022-09-12T14:44:37;1.07;;;1.07;;
1300;SDS011;59099;48.806;9.160;2022-09-12T14:47:14;1.80;;;1.00;;
1300;SDS011;59099;48.806;9.160;2022-09-12T14:49:45;1.03;;;1.00;;
1300;SDS011;59099;48.806;9.160;2022-09-12T14:54:55;0.90;;;0.90;;
1300;SDS011;59099;48.806;9.160;2022-09-12T14:57:36;0.90;;;0.90;;
1300;SDS011;59099;48.806;9.160;2022-09-12T15:00:24;1.20;;;1.10;;
1300;SDS011;59099;48.806;9.160;2022-09-12T15:02:50;0.80;;;0.80;;
1300;SDS011;59099;48.806;9.160;2022-09-12T15:05:18;1.00;;;0.90;;
1300;SDS011;59099;48.806;9.160;2022-09-12T15:15:43;1.03;;;1.03;;
1300;SDS011;59099;48.806;9.160;2022-09-12T15:18:12;0.90;;;0.90;;
1300;SDS011;59099;48.806;9.160;2022-09-12T15:20:38;1.10;;;1.10;;
1300;SDS011;59099;48.806;9.160;2022-09-12T15:23:06;1.20;;;1.10;;
1300;SDS011;59099;48.806;9.160;2022-09-12T15:25:47;1.33;;;1.23;;
1300;SDS011;59099;48.806;9.160;2022-09-12T15:28:16;1.57;;;1.10;;
1300;SDS011;59099;48.806;9.160;2022-09-12T15:30:46;2.30;;;1.40;;
1300;SDS011;59099;48.806;9.160;2022-09-12T15:33:20;2.90;;;1.40;;
1300;SDS011;59099;48.806;9.160;2022-09-12T15:35:48;0.70;;;0.70;;
1300;SDS011;59099;48.806;9.160;2022-09-12T15:38:14;1.00;;;0.87;;
1300;SDS011;59099;48.806;9.160;2022-09-12T15:40:40;2.50;;;2.30;;
1300;SDS011;59099;48.806;9.160;2022-09-12T15:43:07;1.40;;;1.30;;
1300;SDS011;59099;48.806;9.160;2022-09-12T15:45:36;1.70;;;1.60;;
1300;SDS011;59099;48.806;9.160;2022-09-12T15:48:06;1.70;;;1.57;;
1300;SDS011;59099;48.806;9.160;2022-09-12T15:50:33;2.20;;;1.10;;
1300;SDS011;59099;48.806;9.160;2022-09-12T15:53:00;2.17;;;1.10;;
1300;SDS011;59099;48.806;9.160;2022-09-12T15:55:27;1.20;;;1.20;;
1300;SDS011;59099;48.806;9.160;2022-09-12T15:57:54;1.20;;;1.20;;
1300;SDS011;59099;48.806;9.160;2022-09-12T16:00:20;2.43;;;1.20;;
1300;SDS011;59099;48.806;9.160;2022-09-12T16:02:48;1.00;;;1.00;;
1300;SDS011;59099;48.806;9.160;2022-09-12T16:05:16;1.90;;;1.40;;
1300;SDS011;59099;48.806;9.160;2022-09-12T16:07:44;1.40;;;1.30;;
1300;SDS011;59099;48.806;9.160;2022-09-12T16:10:14;1.00;;;1.00;;
1300;SDS011;59099;48.806;9.160;2022-09-12T16:12:41;1.50;;;1.40;;
1300;SDS011;59099;48.806;9.160;2022-09-12T16:15:12;1.57;;;1.47;;
1300;SDS011;59099;48.806;9.160;2022-09-12T16:17:39;1.83;;;1.20;;
1300;SDS011;59099;48.806;9.160;2022-09-12T16:20:06;2.00;;;1.90;;
1300;SDS011;59099;48.806;9.160;2022-09-12T16:22:35;1.53;;;1.43;;
1300;SDS011;59099;48.806;9.160;2022-09-12T16:25:02;1.83;;;1.60;;
1300;SDS011;59099;48.806;9.160;2022-09-12T16:27:29;2.03;;;1.40;;
1300;SDS011;59099;48.806;9.160;2022-09-12T16:29:55;1.93;;;1.73;;
1300;SDS011;59099;48.806;9.160;2022-09-12T16:32:21;1.90;;;1.70;;
1300;SDS011;59099;48.806;9.160;2022-09-12T16:34:46;1.70;;;1.60;;
1300;SDS011;59099;48.806;9.160;2022-09-12T16:37:12;1.40;;;1.30;;
1300;SDS011;59099;48.806;9.160;2022-09-12T16:39:38;1.90;;;1.80;;
1300;SDS011;59099;48.806;9.160;2022-09-12T16:42:03;1.20;;;1.20;;
1300;SDS011;59099;48.806;9.160;2022-09-12T16:44:29;2.20;;;1.57;;
1300;SDS011;59099;48.806;9.160;2022-09-12T16:46:55;1.70;;;1.60;;
1300;SDS011;59099;48.806;9.160;2022-09-12T16:49:23;1.63;;;1.53;;
1300;SDS011;59099;48.806;9.160;2022-09-12T16:51:49;1.60;;;1.40;;
1300;SDS011;59099;48.806;9.160;2022-09-12T16:54:15;1.70;;;1.60;;
1300;SDS011;59099;48.806;9.160;2022-09-12T16:56:41;1.50;;;1.40;;
1300;SDS011;59099;48.806;9.160;2022-09-12T16:59:08;1.60;;;1.47;;
1300;SDS011;59099;48.806;9.160;2022-09-12T17:01:38;2.63;;;1.80;;
1300;SDS011;59099;48.806;9.160;2022-09-12T17:04:03;2.10;;;2.00;;
1300;SDS011;59099;48.806;9.160;2022-09-12T17:06:31;3.43;;;2.33;;
1300;SDS011;59099;48.806;9.160;2022-09-12T17:09:00;2.60;;;2.10;;
1300;SDS011;59099;48.806;9.160;2022-09-12T17:11:31;2.43;;;2.10;;
1300;SDS011;59099;48.806;9.160;2022-09-12T17:13:59;2.80;;;2.50;;
1300;SDS011;59099;48.806;9.160;2022-09-12T17:16:26;2.97;;;2.77;;
1300;SDS011;59099;48.806;9.160;2022-09-12T17:18:52;2.70;;;2.50;;
1300;SDS011;59099;48.806;9.160;2022-09-12T17:21:19;4.33;;;3.93;;
1300;SDS011;59099;48.806;9.160;2022-09-12T17:23:45;3.47;;;3.17;;
1300;SDS011;59099;48.806;9.160;2022-09-12T17:26:11;2.93;;;2.73;;
1300;SDS011;59099;48.806;9.160;2022-09-12T17:28:37;3.33;;;3.13;;
1300;SDS011;59099;48.806;9.160;2022-09-12T17:31:05;4.67;;;4.30;;
1300;SDS011;59099;48.806;9.160;2022-09-12T17:33:35;5.57;;;5.03;;
1300;SDS011;59099;48.806;9.160;2022-09-12T17:36:04;7.50;;;5.40;;
1300;SDS011;59099;48.806;9.160;2022-09-12T17:38:36;5.27;;;4.60;;
1300;SDS011;59099;48.806;9.160;2022-09-12T17:41:26;2.80;;;2.37;;
1300;SDS011;59099;48.806;9.160;2022-09-12T17:44:37;6.27;;;3.07;;
1300;SDS011;59099;48.806;9.160;2022-09-12T17:47:03;3.90;;;2.60;;
1300;SDS011;59099;48.806;9.160;2022-09-12T17:49:29;4.00;;;3.60;;
1300;SDS011;59099;48.806;9.160;2022-09-12T17:51:55;2.10;;;2.00;;